sensor_id;sensor_type;location;lat;lon;timestamp;P1;durP1;ratioP1;P2;durP2;ratioP2
21032;SDS011;10675;47.976;7.824;2023-02-15T00:00:14;12.83;;;7.23;;
21032;SDS011;10675;47.976;7.824;2023-02-15T00:02:39;12.07;;;7.00;;
21032;SDS011;10675;47.976;7.824;2023-02-15T00:05:05;12.00;;;7.27;;
21032;SDS011;10675;47.976;7.824;2023-02-15T00:07:32;12.77;;;6.40;;
21032;SDS011;10675;47.976;7.824;2023-02-15T00:09:57;11.13;;;6.23;;
21032;SDS011;10675;47.976;7.824;2023-02-15T00:12:24;11.20;;;6.70;;
21032;SDS011;10675;47.976;7.824;2023-02-15T00:14:49;12.63;;;6.63;;
21032;SDS011;10675;47.976;7.824;2023-02-15T00:17:15;10.40;;;6.27;;
21032;SDS011;10675;47.976;7.824;2023-02-15T00:19:40;11.37;;;6.70;;
21032;SDS011;10675;47.976;7.824;2023-02-15T00:22:06;11.60;;;6.90;;
21032;SDS011;10675;47.976;7.824;2023-02-15T00:24:32;9.47;;;6.97;;
21032;SDS011;10675;47.976;7.824;2023-02-15T00:26:57;11.43;;;7.00;;
21032;SDS011;10675;47.976;7.824;2023-02-15T00:29:23;14.23;;;6.87;;
21032;SDS011;10675;47.976;7.824;2023-02-15T00:31:49;10.53;;;6.67;;
21032;SDS011;10675;47.976;7.824;2023-02-15T00:34:16;13.07;;;7.27;;
21032;SDS011;10675;47.976;7.824;2023-02-15T00:39:31;13.67;;;7.20;;
21032;SDS011;10675;47.976;7.824;2023-02-15T00:41:56;14.87;;;7.83;;
21032;SDS011;10675;47.976;7.824;2023-02-15T00:44:22;13.93;;;7.13;;
21032;SDS011;10675;47.976;7.824;2023-02-15T00:46:47;12.80;;;6.97;;
21032;SDS011;10675;47.976;7.824;2023-02-15T00:49:13;11.27;;;7.10;;
21032;SDS011;10675;47.976;7.824;2023-02-15T00:51:38;10.23;;;6.73;;
21032;SDS011;10675;47.976;7.824;2023-02-15T00:54:04;14.23;;;7.87;;
21032;SDS011;10675;47.976;7.824;2023-02-15T00:56:30;14.03;;;8.23;;
21032;SDS011;10675;47.976;7.824;2023-02-15T00:58:56;10.73;;;7.63;;
21032;SDS011;10675;47.976;7.824;2023-02-15T01:01:21;12.43;;;7.17;;
21032;SDS011;10675;47.976;7.824;2023-02-15T01:03:48;9.87;;;6.43;;
21032;SDS011;10675;47.976;7.824;2023-02-15T01:06:14;14.30;;;7.37;;
21032;SDS011;10675;47.976;7.824;2023-02-15T01:08:40;15.00;;;7.37;;
21032;SDS011;10675;47.976;7.824;2023-02-15T01:11:11;14.23;;;6.93;;
21032;SDS011;10675;47.976;7.824;2023-02-15T01:13:49;11.97;;;6.20;;
21032;SDS011;10675;47.976;7.824;2023-02-15T01:16:17;11.10;;;6.53;;
21032;SDS011;10675;47.976;7.824;2023-02-15T01:18:43;21.70;;;8.10;;
21032;SDS011;10675;47.976;7.824;2023-02-15T01:21:10;10.47;;;5.90;;
21032;SDS011;10675;47.976;7.824;2023-02-15T01:23:41;15.90;;;7.03;;
21032;SDS011;10675;47.976;7.824;2023-02-15T01:26:07;11.17;;;6.60;;
21032;SDS011;10675;47.976;7.824;2023-02-15T01:28:33;16.63;;;6.30;;
21032;SDS011;10675;47.976;7.824;2023-02-15T01:31:03;10.23;;;6.07;;
21032;SDS011;10675;47.976;7.824;2023-02-15T01:33:36;13.80;;;7.03;;
21032;SDS011;10675;47.976;7.824;2023-02-15T01:36:03;12.73;;;6.77;;
21032;SDS011;10675;47.976;7.824;2023-02-15T01:38:29;12.83;;;6.57;;
21032;SDS011;10675;47.976;7.824;2023-02-15T01:40:54;10.10;;;6.50;;
21032;SDS011;10675;47.976;7.824;2023-02-15T01:43:47;10.13;;;6.63;;
21032;SDS011;10675;47.976;7.824;2023-02-15T01:46:28;11.33;;;6.33;;
21032;SDS011;10675;47.976;7.824;2023-02-15T01:49:19;11.73;;;6.47;;
21032;SDS011;10675;47.976;7.824;2023-02-15T01:51:48;11.10;;;6.80;;
21032;SDS011;10675;47.976;7.824;2023-02-15T01:57:04;10.50;;;7.00;;
21032;SDS011;10675;47.976;7.824;2023-02-15T01:59:32;12.20;;;6.70;;
21032;SDS011;10675;47.976;7.824;2023-02-15T02:02:00;11.37;;;6.93;;
21032;SDS011;10675;47.976;7.824;2023-02-15T02:04:32;13.73;;;6.53;;
21032;SDS011;10675;47.976;7.824;2023-02-15T02:07:04;14.13;;;6.97;;
21032;SDS011;10675;47.976;7.824;2023-02-15T02:09:31;14.00;;;6.57;;
21032;SDS011;10675;47.976;7.824;2023-02-15T02:11:57;18.13;;;6.63;;
21032;SDS011;10675;47.976;7.824;2023-02-15T02:14:23;11.77;;;5.90;;
21032;SDS011;10675;47.976;7.824;2023-02-15T02:22:23;12.13;;;5.57;;
21032;SDS011;10675;47.976;7.824;2023-02-15T02:30:42;22.83;;;7.23;;
21032;SDS011;10675;47.976;7.824;2023-02-15T02:41:35;12.20;;;6.10;;
21032;SDS011;10675;47.976;7.824;2023-02-15T02:44:33;21.53;;;6.73;;
21032;SDS011;10675;47.976;7.824;2023-02-15T02:47:26;9.50;;;6.23;;
21032;SDS011;10675;47.976;7.824;2023-02-15T02:49:59;12.63;;;7.27;;
21032;SDS011;10675;47.976;7.824;2023-02-15T02:52:37;15.30;;;6.57;;
21032;SDS011;10675;47.976;7.824;2023-02-15T02:57:51;15.47;;;7.50;;
21032;SDS011;10675;47.976;7.824;2023-02-15T03:00:36;18.43;;;5.97;;
21032;SDS011;10675;47.976;7.824;2023-02-15T03:03:12;16.77;;;6.57;;
21032;SDS011;10675;47.976;7.824;2023-02-15T03:05:48;13.47;;;6.27;;
21032;SDS011;10675;47.976;7.824;2023-02-15T03:08:18;16.43;;;6.37;;
21032;SDS011;10675;47.976;7.824;2023-02-15T03:10:51;7.43;;;5.63;;
21032;SDS011;10675;47.976;7.824;2023-02-15T03:13:20;17.00;;;7.63;;
21032;SDS011;10675;47.976;7.824;2023-02-15T03:15:46;21.43;;;7.83;;
21032;SDS011;10675;47.976;7.824;2023-02-15T03:18:35;9.27;;;5.87;;
21032;SDS011;10675;47.976;7.824;2023-02-15T03:21:04;13.37;;;5.63;;
21032;SDS011;10675;47.976;7.824;2023-02-15T03:23:31;16.17;;;6.37;;
21032;SDS011;10675;47.976;7.824;2023-02-15T03:26:02;15.03;;;6.40;;
21032;SDS011;10675;47.976;7.824;2023-02-15T03:28:33;10.37;;;5.87;;
21032;SDS011;10675;47.976;7.824;2023-02-15T03:31:04;10.97;;;5.87;;
21032;SDS011;10675;47.976;7.824;2023-02-15T03:33:33;10.73;;;6.07;;
21032;SDS011;10675;47.976;7.824;2023-02-15T03:36:04;17.23;;;6.20;;
21032;SDS011;10675;47.976;7.824;2023-02-15T03:38:47;9.60;;;5.63;;
21032;SDS011;10675;47.976;7.824;2023-02-15T03:41:31;14.63;;;5.93;;
21032;SDS011;10675;47.976;7.824;2023-02-15T03:44:06;12.47;;;6.33;;
21032;SDS011;10675;47.976;7.824;2023-02-15T03:46:42;12.27;;;6.93;;
21032;SDS011;10675;47.976;7.824;2023-02-15T03:49:17;11.90;;;6.10;;
21032;SDS011;10675;47.976;7.824;2023-02-15T03:51:48;10.10;;;5.83;;
21032;SDS011;10675;47.976;7.824;2023-02-15T03:54:22;10.77;;;5.37;;
21032;SDS011;10675;47.976;7.824;2023-02-15T03:57:41;12.50;;;6.77;;
21032;SDS011;10675;47.976;7.824;2023-02-15T04:00:21;10.77;;;5.73;;
21032;SDS011;10675;47.976;7.824;2023-02-15T04:03:24;8.93;;;5.70;;
21032;SDS011;10675;47.976;7.824;2023-02-15T04:06:13;12.67;;;6.40;;
21032;SDS011;10675;47.976;7.824;2023-02-15T04:08:38;11.80;;;6.17;;
21032;SDS011;10675;47.976;7.824;2023-02-15T04:11:23;11.23;;;6.30;;
21032;SDS011;10675;47.976;7.824;2023-02-15T04:13:48;11.70;;;6.00;;
21032;SDS011;10675;47.976;7.824;2023-02-15T04:16:21;9.90;;;5.30;;
21032;SDS011;10675;47.976;7.824;2023-02-15T04:18:50;22.33;;;5.67;;
21032;SDS011;10675;47.976;7.824;2023-02-15T04:21:34;10.57;;;5.67;;
21032;SDS011;10675;47.976;7.824;2023-02-15T04:24:18;8.37;;;5.73;;
21032;SDS011;10675;47.976;7.824;2023-02-15T04:27:03;9.03;;;6.33;;
21032;SDS011;10675;47.976;7.824;2023-02-15T04:29:30;10.87;;;5.77;;
21032;SDS011;10675;47.976;7.824;2023-02-15T04:31:57;14.87;;;5.80;;
21032;SDS011;10675;47.976;7.824;2023-02-15T04:34:25;19.10;;;5.63;;
21032;SDS011;10675;47.976;7.824;2023-02-15T04:36:51;11.10;;;5.93;;
21032;SDS011;10675;47.976;7.824;2023-02-15T04:39:17;8.13;;;5.20;;
21032;SDS011;10675;47.976;7.824;2023-02-15T04:41:43;9.93;;;5.13;;
21032;SDS011;10675;47.976;7.824;2023-02-15T04:44:09;11.10;;;6.37;;
21032;SDS011;10675;47.976;7.824;2023-02-15T04:46:35;11.33;;;5.07;;
21032;SDS011;10675;47.976;7.824;2023-02-15T04:49:01;10.07;;;5.73;;
21032;SDS011;10675;47.976;7.824;2023-02-15T04:51:26;9.17;;;5.50;;
21032;SDS011;10675;47.976;7.824;2023-02-15T04:53:52;10.40;;;5.00;;
21032;SDS011;10675;47.976;7.824;2023-02-15T04:56:18;9.00;;;5.40;;
21032;SDS011;10675;47.976;7.824;2023-02-15T04:58:46;8.20;;;5.50;;
21032;SDS011;10675;47.976;7.824;2023-02-15T05:01:12;11.53;;;5.37;;
21032;SDS011;10675;47.976;7.824;2023-02-15T05:03:37;8.90;;;5.90;;
21032;SDS011;10675;47.976;7.824;2023-02-15T05:06:04;7.10;;;4.97;;
21032;SDS011;10675;47.976;7.824;2023-02-15T05:08:30;9.80;;;4.93;;
21032;SDS011;10675;47.976;7.824;2023-02-15T05:10:56;14.90;;;5.00;;
21032;SDS011;10675;47.976;7.824;2023-02-15T05:13:22;9.43;;;5.10;;
21032;SDS011;10675;47.976;7.824;2023-02-15T05:15:48;14.13;;;5.83;;
21032;SDS011;10675;47.976;7.824;2023-02-15T05:18:14;11.07;;;5.27;;
21032;SDS011;10675;47.976;7.824;2023-02-15T05:20:40;10.77;;;5.80;;
21032;SDS011;10675;47.976;7.824;2023-02-15T05:23:05;10.10;;;5.63;;
21032;SDS011;10675;47.976;7.824;2023-02-15T05:25:31;11.63;;;5.93;;
21032;SDS011;10675;47.976;7.824;2023-02-15T05:28:15;7.43;;;4.87;;
21032;SDS011;10675;47.976;7.824;2023-02-15T05:30:47;8.27;;;5.47;;
21032;SDS011;10675;47.976;7.824;2023-02-15T05:33:24;9.97;;;5.90;;
21032;SDS011;10675;47.976;7.824;2023-02-15T05:35:49;11.47;;;5.90;;
21032;SDS011;10675;47.976;7.824;2023-02-15T05:38:15;12.53;;;5.70;;
21032;SDS011;10675;47.976;7.824;2023-02-15T05:40:41;11.00;;;6.00;;
21032;SDS011;10675;47.976;7.824;2023-02-15T05:43:06;8.80;;;4.90;;
21032;SDS011;10675;47.976;7.824;2023-02-15T05:45:32;10.90;;;5.90;;
21032;SDS011;10675;47.976;7.824;2023-02-15T05:47:58;8.03;;;5.10;;
21032;SDS011;10675;47.976;7.824;2023-02-15T05:50:23;6.57;;;4.73;;
21032;SDS011;10675;47.976;7.824;2023-02-15T05:52:50;11.27;;;5.37;;
21032;SDS011;10675;47.976;7.824;2023-02-15T05:55:15;8.27;;;5.40;;
21032;SDS011;10675;47.976;7.824;2023-02-15T05:57:41;9.10;;;5.37;;
21032;SDS011;10675;47.976;7.824;2023-02-15T06:00:06;7.23;;;5.27;;
21032;SDS011;10675;47.976;7.824;2023-02-15T06:02:34;10.50;;;5.57;;
21032;SDS011;10675;47.976;7.824;2023-02-15T06:05:01;8.17;;;5.17;;
21032;SDS011;10675;47.976;7.824;2023-02-15T06:07:27;10.60;;;5.60;;
21032;SDS011;10675;47.976;7.824;2023-02-15T06:09:52;15.13;;;6.30;;
21032;SDS011;10675;47.976;7.824;2023-02-15T06:12:18;17.43;;;6.13;;
21032;SDS011;10675;47.976;7.824;2023-02-15T06:14:43;9.67;;;5.87;;
21032;SDS011;10675;47.976;7.824;2023-02-15T06:17:09;8.80;;;5.73;;
21032;SDS011;10675;47.976;7.824;2023-02-15T06:19:34;22.63;;;5.80;;
21032;SDS011;10675;47.976;7.824;2023-02-15T06:22:00;10.90;;;6.60;;
21032;SDS011;10675;47.976;7.824;2023-02-15T06:24:25;13.00;;;5.90;;
21032;SDS011;10675;47.976;7.824;2023-02-15T06:26:51;10.50;;;5.43;;
21032;SDS011;10675;47.976;7.824;2023-02-15T06:29:16;13.33;;;5.83;;
21032;SDS011;10675;47.976;7.824;2023-02-15T06:31:42;13.40;;;6.33;;
21032;SDS011;10675;47.976;7.824;2023-02-15T06:34:07;10.07;;;5.93;;
21032;SDS011;10675;47.976;7.824;2023-02-15T06:36:33;9.33;;;5.63;;
21032;SDS011;10675;47.976;7.824;2023-02-15T06:38:59;22.77;;;5.97;;
21032;SDS011;10675;47.976;7.824;2023-02-15T06:41:24;9.40;;;5.77;;
21032;SDS011;10675;47.976;7.824;2023-02-15T06:43:50;10.37;;;5.80;;
21032;SDS011;10675;47.976;7.824;2023-02-15T06:46:15;7.53;;;4.70;;
21032;SDS011;10675;47.976;7.824;2023-02-15T06:48:41;12.63;;;6.30;;
21032;SDS011;10675;47.976;7.824;2023-02-15T06:51:07;8.13;;;5.33;;
21032;SDS011;10675;47.976;7.824;2023-02-15T06:53:32;16.00;;;5.57;;
21032;SDS011;10675;47.976;7.824;2023-02-15T06:56:01;13.20;;;7.03;;
21032;SDS011;10675;47.976;7.824;2023-02-15T06:58:31;9.40;;;5.87;;
21032;SDS011;10675;47.976;7.824;2023-02-15T07:01:06;12.87;;;6.27;;
21032;SDS011;10675;47.976;7.824;2023-02-15T07:03:32;10.57;;;5.67;;
21032;SDS011;10675;47.976;7.824;2023-02-15T07:05:59;8.93;;;5.93;;
21032;SDS011;10675;47.976;7.824;2023-02-15T07:08:26;11.90;;;6.77;;
21032;SDS011;10675;47.976;7.824;2023-02-15T07:10:53;8.23;;;5.13;;
21032;SDS011;10675;47.976;7.824;2023-02-15T07:13:19;10.80;;;6.60;;
21032;SDS011;10675;47.976;7.824;2023-02-15T07:15:46;12.07;;;6.63;;
21032;SDS011;10675;47.976;7.824;2023-02-15T07:18:12;12.33;;;6.20;;
21032;SDS011;10675;47.976;7.824;2023-02-15T07:20:38;12.30;;;6.20;;
21032;SDS011;10675;47.976;7.824;2023-02-15T07:23:05;12.43;;;6.13;;
21032;SDS011;10675;47.976;7.824;2023-02-15T07:25:31;10.03;;;5.93;;
21032;SDS011;10675;47.976;7.824;2023-02-15T07:28:00;9.93;;;6.03;;
21032;SDS011;10675;47.976;7.824;2023-02-15T07:30:27;10.67;;;5.40;;
21032;SDS011;10675;47.976;7.824;2023-02-15T07:32:57;12.03;;;6.87;;
21032;SDS011;10675;47.976;7.824;2023-02-15T07:35:46;18.37;;;6.17;;
21032;SDS011;10675;47.976;7.824;2023-02-15T07:38:12;16.57;;;6.13;;
21032;SDS011;10675;47.976;7.824;2023-02-15T07:40:38;13.57;;;6.63;;
21032;SDS011;10675;47.976;7.824;2023-02-15T07:43:03;15.43;;;7.43;;
21032;SDS011;10675;47.976;7.824;2023-02-15T07:45:29;11.23;;;6.77;;
21032;SDS011;10675;47.976;7.824;2023-02-15T07:47:55;10.53;;;6.37;;
21032;SDS011;10675;47.976;7.824;2023-02-15T07:50:20;12.83;;;6.23;;
21032;SDS011;10675;47.976;7.824;2023-02-15T07:52:46;9.53;;;6.33;;
21032;SDS011;10675;47.976;7.824;2023-02-15T07:55:11;13.77;;;7.17;;
21032;SDS011;10675;47.976;7.824;2023-02-15T07:57:41;10.07;;;6.87;;
21032;SDS011;10675;47.976;7.824;2023-02-15T08:00:08;11.73;;;6.17;;
21032;SDS011;10675;47.976;7.824;2023-02-15T08:02:34;16.70;;;7.23;;
21032;SDS011;10675;47.976;7.824;2023-02-15T08:05:02;11.93;;;6.20;;
21032;SDS011;10675;47.976;7.824;2023-02-15T08:07:27;11.73;;;6.93;;
21032;SDS011;10675;47.976;7.824;2023-02-15T08:09:53;12.10;;;6.57;;
21032;SDS011;10675;47.976;7.824;2023-02-15T08:12:18;11.13;;;6.33;;
21032;SDS011;10675;47.976;7.824;2023-02-15T08:14:44;12.93;;;6.43;;
21032;SDS011;10675;47.976;7.824;2023-02-15T08:17:10;12.17;;;6.43;;
21032;SDS011;10675;47.976;7.824;2023-02-15T08:19:35;12.10;;;6.70;;
21032;SDS011;10675;47.976;7.824;2023-02-15T08:22:05;16.27;;;6.67;;
21032;SDS011;10675;47.976;7.824;2023-02-15T08:24:32;13.40;;;7.57;;
21032;SDS011;10675;47.976;7.824;2023-02-15T08:26:59;14.17;;;6.47;;
21032;SDS011;10675;47.976;7.824;2023-02-15T08:29:28;25.70;;;8.83;;
21032;SDS011;10675;47.976;7.824;2023-02-15T08:31:55;16.67;;;8.20;;
21032;SDS011;10675;47.976;7.824;2023-02-15T08:34:23;14.50;;;6.47;;
21032;SDS011;10675;47.976;7.824;2023-02-15T08:36:49;10.87;;;5.93;;
21032;SDS011;10675;47.976;7.824;2023-02-15T08:39:16;14.37;;;6.07;;
21032;SDS011;10675;47.976;7.824;2023-02-15T08:41:42;16.20;;;6.47;;
21032;SDS011;10675;47.976;7.824;2023-02-15T08:44:09;16.33;;;6.33;;
21032;SDS011;10675;47.976;7.824;2023-02-15T08:46:36;14.50;;;6.93;;
21032;SDS011;10675;47.976;7.824;2023-02-15T08:49:03;17.20;;;7.13;;
21032;SDS011;10675;47.976;7.824;2023-02-15T08:51:30;14.80;;;7.27;;
21032;SDS011;10675;47.976;7.824;2023-02-15T08:53:58;15.00;;;8.13;;
21032;SDS011;10675;47.976;7.824;2023-02-15T08:56:27;14.03;;;6.93;;
21032;SDS011;10675;47.976;7.824;2023-02-15T08:58:54;12.73;;;6.90;;
21032;SDS011;10675;47.976;7.824;2023-02-15T09:01:21;11.80;;;6.73;;
21032;SDS011;10675;47.976;7.824;2023-02-15T09:03:49;15.80;;;6.70;;
21032;SDS011;10675;47.976;7.824;2023-02-15T09:06:18;12.90;;;7.20;;
21032;SDS011;10675;47.976;7.824;2023-02-15T09:08:44;12.93;;;7.57;;
21032;SDS011;10675;47.976;7.824;2023-02-15T09:11:11;9.97;;;6.50;;
21032;SDS011;10675;47.976;7.824;2023-02-15T09:13:39;13.33;;;7.33;;
21032;SDS011;10675;47.976;7.824;2023-02-15T09:16:05;17.53;;;8.07;;
21032;SDS011;10675;47.976;7.824;2023-02-15T09:18:33;13.13;;;7.67;;
21032;SDS011;10675;47.976;7.824;2023-02-15T09:21:07;17.47;;;9.47;;
21032;SDS011;10675;47.976;7.824;2023-02-15T09:23:34;12.53;;;7.67;;
21032;SDS011;10675;47.976;7.824;2023-02-15T09:26:04;13.13;;;8.03;;
21032;SDS011;10675;47.976;7.824;2023-02-15T09:28:30;16.07;;;8.03;;
21032;SDS011;10675;47.976;7.824;2023-02-15T09:31:03;12.73;;;7.33;;
21032;SDS011;10675;47.976;7.824;2023-02-15T09:33:33;11.80;;;7.63;;
21032;SDS011;10675;47.976;7.824;2023-02-15T09:35:59;14.67;;;8.13;;
21032;SDS011;10675;47.976;7.824;2023-02-15T09:38:25;13.97;;;7.47;;
21032;SDS011;10675;47.976;7.824;2023-02-15T09:40:55;16.77;;;7.70;;
21032;SDS011;10675;47.976;7.824;2023-02-15T09:43:39;13.87;;;7.67;;
21032;SDS011;10675;47.976;7.824;2023-02-15T09:46:22;12.60;;;6.77;;
21032;SDS011;10675;47.976;7.824;2023-02-15T09:49:09;14.27;;;7.17;;
21032;SDS011;10675;47.976;7.824;2023-02-15T09:54:37;16.60;;;7.73;;
21032;SDS011;10675;47.976;7.824;2023-02-15T09:57:10;13.00;;;7.50;;
21032;SDS011;10675;47.976;7.824;2023-02-15T09:59:55;15.43;;;8.13;;
21032;SDS011;10675;47.976;7.824;2023-02-15T10:02:35;11.87;;;7.60;;
21032;SDS011;10675;47.976;7.824;2023-02-15T10:05:14;11.27;;;7.23;;
21032;SDS011;10675;47.976;7.824;2023-02-15T10:27:58;11.03;;;6.73;;
21032;SDS011;10675;47.976;7.824;2023-02-15T10:30:39;9.67;;;6.93;;
21032;SDS011;10675;47.976;7.824;2023-02-15T10:33:19;11.97;;;7.17;;
21032;SDS011;10675;47.976;7.824;2023-02-15T10:36:11;9.50;;;6.87;;
21032;SDS011;10675;47.976;7.824;2023-02-15T10:39:05;14.07;;;7.73;;
21032;SDS011;10675;47.976;7.824;2023-02-15T10:45:04;13.87;;;7.53;;
21032;SDS011;10675;47.976;7.824;2023-02-15T10:50:53;14.87;;;7.57;;
21032;SDS011;10675;47.976;7.824;2023-02-15T10:56:42;11.73;;;6.97;;
21032;SDS011;10675;47.976;7.824;2023-02-15T11:04:55;11.90;;;8.10;;
21032;SDS011;10675;47.976;7.824;2023-02-15T11:07:35;13.47;;;7.83;;
21032;SDS011;10675;47.976;7.824;2023-02-15T11:10:28;15.83;;;8.30;;
21032;SDS011;10675;47.976;7.824;2023-02-15T11:12:51;14.50;;;7.60;;
21032;SDS011;10675;47.976;7.824;2023-02-15T11:15:30;14.00;;;8.10;;
21032;SDS011;10675;47.976;7.824;2023-02-15T11:18:12;13.07;;;8.00;;
21032;SDS011;10675;47.976;7.824;2023-02-15T11:21:04;17.07;;;8.53;;
21032;SDS011;10675;47.976;7.824;2023-02-15T11:23:36;16.53;;;8.67;;
21032;SDS011;10675;47.976;7.824;2023-02-15T11:26:11;19.03;;;8.70;;
21032;SDS011;10675;47.976;7.824;2023-02-15T11:28:51;13.33;;;8.10;;
21032;SDS011;10675;47.976;7.824;2023-02-15T11:31:21;17.50;;;8.27;;
21032;SDS011;10675;47.976;7.824;2023-02-15T11:33:51;14.83;;;8.20;;
21032;SDS011;10675;47.976;7.824;2023-02-15T11:36:33;13.47;;;8.53;;
21032;SDS011;10675;47.976;7.824;2023-02-15T11:39:10;12.73;;;7.63;;
21032;SDS011;10675;47.976;7.824;2023-02-15T11:41:40;12.83;;;8.63;;
21032;SDS011;10675;47.976;7.824;2023-02-15T11:44:15;14.37;;;9.20;;
21032;SDS011;10675;47.976;7.824;2023-02-15T11:46:43;13.53;;;8.60;;
21032;SDS011;10675;47.976;7.824;2023-02-15T11:49:14;14.13;;;8.97;;
21032;SDS011;10675;47.976;7.824;2023-02-15T11:51:51;16.53;;;9.93;;
21032;SDS011;10675;47.976;7.824;2023-02-15T11:54:26;18.27;;;8.97;;
21032;SDS011;10675;47.976;7.824;2023-02-15T11:56:58;18.23;;;9.30;;
21032;SDS011;10675;47.976;7.824;2023-02-15T11:59:32;18.23;;;9.73;;
21032;SDS011;10675;47.976;7.824;2023-02-15T12:02:02;18.30;;;10.07;;
21032;SDS011;10675;47.976;7.824;2023-02-15T12:04:29;15.37;;;9.03;;
21032;SDS011;10675;47.976;7.824;2023-02-15T12:07:44;17.37;;;10.00;;
21032;SDS011;10675;47.976;7.824;2023-02-15T12:12:43;17.90;;;9.67;;
21032;SDS011;10675;47.976;7.824;2023-02-15T12:15:12;16.03;;;9.70;;
21032;SDS011;10675;47.976;7.824;2023-02-15T12:17:40;14.33;;;9.50;;
21032;SDS011;10675;47.976;7.824;2023-02-15T12:22:52;17.07;;;9.17;;
21032;SDS011;10675;47.976;7.824;2023-02-15T12:25:28;13.73;;;8.60;;
21032;SDS011;10675;47.976;7.824;2023-02-15T12:28:00;18.47;;;10.00;;
21032;SDS011;10675;47.976;7.824;2023-02-15T12:30:30;15.00;;;9.00;;
21032;SDS011;10675;47.976;7.824;2023-02-15T12:33:24;14.73;;;9.37;;
21032;SDS011;10675;47.976;7.824;2023-02-15T12:36:03;15.97;;;9.80;;
21032;SDS011;10675;47.976;7.824;2023-02-15T12:38:39;16.07;;;9.80;;
21032;SDS011;10675;47.976;7.824;2023-02-15T12:41:21;15.37;;;9.57;;
21032;SDS011;10675;47.976;7.824;2023-02-15T12:44:04;16.43;;;10.00;;
21032;SDS011;10675;47.976;7.824;2023-02-15T12:46:40;14.00;;;9.07;;
21032;SDS011;10675;47.976;7.824;2023-02-15T12:51:42;15.23;;;9.97;;
21032;SDS011;10675;47.976;7.824;2023-02-15T12:54:37;15.20;;;10.03;;
21032;SDS011;10675;47.976;7.824;2023-02-15T12:59:51;17.20;;;10.77;;
21032;SDS011;10675;47.976;7.824;2023-02-15T13:02:34;15.90;;;9.97;;
21032;SDS011;10675;47.976;7.824;2023-02-15T13:07:38;15.70;;;9.70;;
21032;SDS011;10675;47.976;7.824;2023-02-15T13:10:21;18.70;;;10.93;;
21032;SDS011;10675;47.976;7.824;2023-02-15T13:12:49;17.63;;;10.83;;
21032;SDS011;10675;47.976;7.824;2023-02-15T13:15:23;15.37;;;10.40;;
21032;SDS011;10675;47.976;7.824;2023-02-15T13:17:51;17.70;;;9.83;;
21032;SDS011;10675;47.976;7.824;2023-02-15T13:20:20;19.27;;;10.47;;
21032;SDS011;10675;47.976;7.824;2023-02-15T13:22:49;15.03;;;9.83;;
21032;SDS011;10675;47.976;7.824;2023-02-15T13:25:18;14.63;;;9.27;;
21032;SDS011;10675;47.976;7.824;2023-02-15T13:27:48;18.00;;;10.37;;
21032;SDS011;10675;47.976;7.824;2023-02-15T13:30:20;16.27;;;9.30;;
21032;SDS011;10675;47.976;7.824;2023-02-15T13:33:13;11.90;;;8.07;;
21032;SDS011;10675;47.976;7.824;2023-02-15T13:41:01;17.13;;;9.17;;
21032;SDS011;10675;47.976;7.824;2023-02-15T13:48:54;14.00;;;9.50;;
21032;SDS011;10675;47.976;7.824;2023-02-15T13:51:43;16.63;;;9.67;;
21032;SDS011;10675;47.976;7.824;2023-02-15T14:00:02;15.23;;;9.23;;
21032;SDS011;10675;47.976;7.824;2023-02-15T14:02:58;15.43;;;9.23;;
21032;SDS011;10675;47.976;7.824;2023-02-15T14:11:32;13.13;;;8.77;;
21032;SDS011;10675;47.976;7.824;2023-02-15T14:17:00;11.20;;;8.27;;
21032;SDS011;10675;47.976;7.824;2023-02-15T14:20:01;12.40;;;8.17;;
21032;SDS011;10675;47.976;7.824;2023-02-15T14:22:57;13.20;;;8.77;;
21032;SDS011;10675;47.976;7.824;2023-02-15T14:25:25;11.37;;;7.97;;
21032;SDS011;10675;47.976;7.824;2023-02-15T14:27:59;10.80;;;8.13;;
21032;SDS011;10675;47.976;7.824;2023-02-15T14:30:39;12.97;;;9.37;;
21032;SDS011;10675;47.976;7.824;2023-02-15T14:33:47;12.83;;;8.30;;
21032;SDS011;10675;47.976;7.824;2023-02-15T14:36:04;14.37;;;9.03;;
21032;SDS011;10675;47.976;7.824;2023-02-15T14:44:01;13.97;;;9.77;;
21032;SDS011;10675;47.976;7.824;2023-02-15T14:54:07;15.27;;;8.97;;
21032;SDS011;10675;47.976;7.824;2023-02-15T14:56:33;13.17;;;8.40;;
21032;SDS011;10675;47.976;7.824;2023-02-15T14:59:12;12.07;;;9.47;;
21032;SDS011;10675;47.976;7.824;2023-02-15T15:01:39;11.00;;;8.47;;
21032;SDS011;10675;47.976;7.824;2023-02-15T15:04:06;11.70;;;8.03;;
21032;SDS011;10675;47.976;7.824;2023-02-15T15:06:37;12.03;;;7.77;;
21032;SDS011;10675;47.976;7.824;2023-02-15T15:09:25;13.03;;;8.50;;
21032;SDS011;10675;47.976;7.824;2023-02-15T15:11:54;11.67;;;7.93;;
21032;SDS011;10675;47.976;7.824;2023-02-15T15:14:39;14.10;;;8.50;;
21032;SDS011;10675;47.976;7.824;2023-02-15T15:17:05;11.73;;;8.10;;
21032;SDS011;10675;47.976;7.824;2023-02-15T15:22:26;10.93;;;8.17;;
21032;SDS011;10675;47.976;7.824;2023-02-15T15:32:37;12.60;;;8.47;;
21032;SDS011;10675;47.976;7.824;2023-02-15T15:41:43;12.83;;;8.90;;
21032;SDS011;10675;47.976;7.824;2023-02-15T15:49:49;10.60;;;7.60;;
21032;SDS011;10675;47.976;7.824;2023-02-15T15:52:20;13.00;;;7.97;;
21032;SDS011;10675;47.976;7.824;2023-02-15T15:54:48;9.90;;;8.07;;
21032;SDS011;10675;47.976;7.824;2023-02-15T16:02:55;11.20;;;7.97;;
21032;SDS011;10675;47.976;7.824;2023-02-15T16:05:21;11.27;;;7.97;;
21032;SDS011;10675;47.976;7.824;2023-02-15T16:07:48;12.03;;;8.70;;
21032;SDS011;10675;47.976;7.824;2023-02-15T16:10:27;14.87;;;9.07;;
21032;SDS011;10675;47.976;7.824;2023-02-15T16:12:57;13.00;;;8.07;;
21032;SDS011;10675;47.976;7.824;2023-02-15T16:15:24;12.43;;;8.13;;
21032;SDS011;10675;47.976;7.824;2023-02-15T16:17:55;11.90;;;7.97;;
21032;SDS011;10675;47.976;7.824;2023-02-15T16:20:24;15.13;;;8.87;;
21032;SDS011;10675;47.976;7.824;2023-02-15T16:28:11;12.60;;;8.13;;
21032;SDS011;10675;47.976;7.824;2023-02-15T16:30:38;16.83;;;10.10;;
21032;SDS011;10675;47.976;7.824;2023-02-15T16:35:42;16.63;;;9.63;;
21032;SDS011;10675;47.976;7.824;2023-02-15T16:38:17;15.13;;;8.67;;
21032;SDS011;10675;47.976;7.824;2023-02-15T16:40:52;17.07;;;9.27;;
21032;SDS011;10675;47.976;7.824;2023-02-15T16:43:23;15.17;;;9.10;;
21032;SDS011;10675;47.976;7.824;2023-02-15T16:45:51;12.57;;;7.90;;
21032;SDS011;10675;47.976;7.824;2023-02-15T16:48:24;13.53;;;8.10;;
21032;SDS011;10675;47.976;7.824;2023-02-15T16:50:51;12.97;;;7.93;;
21032;SDS011;10675;47.976;7.824;2023-02-15T16:53:21;12.67;;;8.63;;
21032;SDS011;10675;47.976;7.824;2023-02-15T16:55:50;13.07;;;8.53;;
21032;SDS011;10675;47.976;7.824;2023-02-15T16:58:26;13.77;;;8.87;;
21032;SDS011;10675;47.976;7.824;2023-02-15T17:00:56;13.40;;;8.30;;
21032;SDS011;10675;47.976;7.824;2023-02-15T17:03:23;15.27;;;8.57;;
21032;SDS011;10675;47.976;7.824;2023-02-15T17:05:59;13.43;;;8.63;;
21032;SDS011;10675;47.976;7.824;2023-02-15T17:08:41;14.17;;;9.10;;
21032;SDS011;10675;47.976;7.824;2023-02-15T17:11:21;16.87;;;9.90;;
21032;SDS011;10675;47.976;7.824;2023-02-15T17:16:34;12.30;;;8.20;;
21032;SDS011;10675;47.976;7.824;2023-02-15T17:19:15;12.03;;;7.63;;
21032;SDS011;10675;47.976;7.824;2023-02-15T17:21:54;12.40;;;8.03;;
21032;SDS011;10675;47.976;7.824;2023-02-15T17:24:28;13.53;;;8.10;;
21032;SDS011;10675;47.976;7.824;2023-02-15T17:27:06;15.57;;;8.73;;
21032;SDS011;10675;47.976;7.824;2023-02-15T17:29:38;13.77;;;8.83;;
21032;SDS011;10675;47.976;7.824;2023-02-15T17:32:12;18.30;;;10.30;;
21032;SDS011;10675;47.976;7.824;2023-02-15T17:37:24;16.20;;;10.10;;
21032;SDS011;10675;47.976;7.824;2023-02-15T17:40:09;17.50;;;10.30;;